sensor_id;sensor_type;location;lat;lon;timestamp;temperature;humidity
49549;DHT22;35450;44.518;7.466;2023-06-22T00:01:26;22.50;97.70
49549;DHT22;35450;44.518;7.466;2023-06-22T00:04:30;22.40;97.80
49549;DHT22;35450;44.518;7.466;2023-06-22T00:07:33;22.40;97.80
49549;DHT22;35450;44.518;7.466;2023-06-22T00:10:37;22.60;97.70
49549;DHT22;35450;44.518;7.466;2023-06-22T00:13:41;22.80;97.80
49549;DHT22;35450;44.518;7.466;2023-06-22T00:16:45;22.60;98.10
49549;DHT22;35450;44.518;7.466;2023-06-22T00:19:52;22.50;98.00
49549;DHT22;35450;44.518;7.466;2023-06-22T00:22:57;22.70;97.90
49549;DHT22;35450;44.518;7.466;2023-06-22T00:26:02;22.60;98.70
49549;DHT22;35450;44.518;7.466;2023-06-22T00:29:06;22.40;98.80
49549;DHT22;35450;44.518;7.466;2023-06-22T00:32:10;22.70;98.90
49549;DHT22;35450;44.518;7.466;2023-06-22T00:35:14;22.80;98.70
49549;DHT22;35450;44.518;7.466;2023-06-22T00:38:18;22.80;98.70
49549;DHT22;35450;44.518;7.466;2023-06-22T00:41:22;22.90;98.60
49549;DHT22;35450;44.518;7.466;2023-06-22T00:44:26;23.10;98.60
49549;DHT22;35450;44.518;7.466;2023-06-22T00:47:29;23.10;98.30
49549;DHT22;35450;44.518;7.466;2023-06-22T00:50:34;23.20;97.50
49549;DHT22;35450;44.518;7.466;2023-06-22T00:53:38;23.10;97.60
49549;DHT22;35450;44.518;7.466;2023-06-22T00:56:42;23.10;97.70
49549;DHT22;35450;44.518;7.466;2023-06-22T00:59:48;23.10;97.60
49549;DHT22;35450;44.518;7.466;2023-06-22T01:02:52;23.20;97.60
49549;DHT22;35450;44.518;7.466;2023-06-22T01:06:06;23.20;98.00
49549;DHT22;35450;44.518;7.466;2023-06-22T01:09:15;23.10;97.70
49549;DHT22;35450;44.518;7.466;2023-06-22T01:12:21;22.90;98.00
49549;DHT22;35450;44.518;7.466;2023-06-22T01:16:00;22.70;98.80
49549;DHT22;35450;44.518;7.466;2023-06-22T01:19:09;22.40;99.80
49549;DHT22;35450;44.518;7.466;2023-06-22T01:22:18;22.20;99.90
49549;DHT22;35450;44.518;7.466;2023-06-22T01:25:33;22.40;99.90
49549;DHT22;35450;44.518;7.466;2023-06-22T01:28:49;22.50;99.70
49549;DHT22;35450;44.518;7.466;2023-06-22T01:31:54;22.50;98.90
49549;DHT22;35450;44.518;7.466;2023-06-22T01:35:01;22.60;98.90
49549;DHT22;35450;44.518;7.466;2023-06-22T01:38:09;22.90;98.80
49549;DHT22;35450;44.518;7.466;2023-06-22T01:41:13;22.80;98.80
49549;DHT22;35450;44.518;7.466;2023-06-22T01:44:18;23.00;98.90
49549;DHT22;35450;44.518;7.466;2023-06-22T01:47:22;23.10;98.70
49549;DHT22;35450;44.518;7.466;2023-06-22T01:50:26;23.10;98.60
49549;DHT22;35450;44.518;7.466;2023-06-22T01:53:31;22.80;99.40
49549;DHT22;35450;44.518;7.466;2023-06-22T01:56:35;22.80;99.70
49549;DHT22;35450;44.518;7.466;2023-06-22T02:03:14;22.80;99.70
49549;DHT22;35450;44.518;7.466;2023-06-22T02:06:30;22.40;99.90
49549;DHT22;35450;44.518;7.466;2023-06-22T02:09:39;22.10;99.90
49549;DHT22;35450;44.518;7.466;2023-06-22T02:12:45;22.00;99.90
49549;DHT22;35450;44.518;7.466;2023-06-22T02:15:49;22.30;99.90
49549;DHT22;35450;44.518;7.466;2023-06-22T02:18:55;22.50;99.90
49549;DHT22;35450;44.518;7.466;2023-06-22T02:22:00;22.50;99.70
49549;DHT22;35450;44.518;7.466;2023-06-22T02:25:04;22.70;99.50
49549;DHT22;35450;44.518;7.466;2023-06-22T02:28:08;22.80;99.40
49549;DHT22;35450;44.518;7.466;2023-06-22T02:31:12;22.80;99.40
49549;DHT22;35450;44.518;7.466;2023-06-22T02:34:16;22.80;99.40
49549;DHT22;35450;44.518;7.466;2023-06-22T02:37:21;22.50;99.80
49549;DHT22;35450;44.518;7.466;2023-06-22T02:40:31;22.50;99.90
49549;DHT22;35450;44.518;7.466;2023-06-22T02:43:35;22.40;99.90
49549;DHT22;35450;44.518;7.466;2023-06-22T02:46:39;22.20;99.90
49549;DHT22;35450;44.518;7.466;2023-06-22T02:49:43;22.10;99.90
49549;DHT22;35450;44.518;7.466;2023-06-22T02:52:49;21.80;99.90
49549;DHT22;35450;44.518;7.466;2023-06-22T02:55:55;22.00;99.90
49549;DHT22;35450;44.518;7.466;2023-06-22T02:58:59;22.20;99.90
49549;DHT22;35450;44.518;7.466;2023-06-22T03:02:12;22.20;99.90
49549;DHT22;35450;44.518;7.466;2023-06-22T03:05:17;22.20;99.90
49549;DHT22;35450;44.518;7.466;2023-06-22T03:08:23;22.40;99.90
49549;DHT22;35450;44.518;7.466;2023-06-22T03:11:27;22.50;99.90
49549;DHT22;35450;44.518;7.466;2023-06-22T03:14:31;22.10;99.90
49549;DHT22;35450;44.518;7.466;2023-06-22T03:17:36;22.10;99.90
49549;DHT22;35450;44.518;7.466;2023-06-22T03:20:40;22.20;99.90
49549;DHT22;35450;44.518;7.466;2023-06-22T03:23:46;22.10;99.90
49549;DHT22;35450;44.518;7.466;2023-06-22T03:26:50;22.10;99.90
49549;DHT22;35450;44.518;7.466;2023-06-22T03:29:54;22.30;99.90
49549;DHT22;35450;44.518;7.466;2023-06-22T03:32:58;22.50;99.90
49549;DHT22;35450;44.518;7.466;2023-06-22T03:36:04;22.50;99.90
49549;DHT22;35450;44.518;7.466;2023-06-22T03:39:08;22.60;99.90
49549;DHT22;35450;44.518;7.466;2023-06-22T03:42:12;22.60;99.90
49549;DHT22;35450;44.518;7.466;2023-06-22T03:45:17;22.80;99.90
49549;DHT22;35450;44.518;7.466;2023-06-22T03:48:21;22.80;99.80
49549;DHT22;35450;44.518;7.466;2023-06-22T03:51:25;22.80;99.90
49549;DHT22;35450;44.518;7.466;2023-06-22T03:54:30;22.80;99.90
49549;DHT22;35450;44.518;7.466;2023-06-22T03:57:34;22.80;99.90
49549;DHT22;35450;44.518;7.466;2023-06-22T04:00:38;22.80;99.90
49549;DHT22;35450;44.518;7.466;2023-06-22T04:03:42;22.70;99.90
49549;DHT22;35450;44.518;7.466;2023-06-22T04:06:46;22.60;99.90
49549;DHT22;35450;44.518;7.466;2023-06-22T04:09:50;22.50;99.90
49549;DHT22;35450;44.518;7.466;2023-06-22T04:12:54;22.60;99.90
49549;DHT22;35450;44.518;7.466;2023-06-22T04:15:58;22.70;99.90
49549;DHT22;35450;44.518;7.466;2023-06-22T04:19:02;22.70;99.90
49549;DHT22;35450;44.518;7.466;2023-06-22T04:22:06;22.60;99.90
49549;DHT22;35450;44.518;7.466;2023-06-22T04:25:11;22.50;99.90
49549;DHT22;35450;44.518;7.466;2023-06-22T04:28:15;22.50;99.90
49549;DHT22;35450;44.518;7.466;2023-06-22T04:31:19;22.60;99.90
49549;DHT22;35450;44.518;7.466;2023-06-22T04:34:22;22.60;99.90
49549;DHT22;35450;44.518;7.466;2023-06-22T04:37:30;22.20;99.90
49549;DHT22;35450;44.518;7.466;2023-06-22T04:40:34;22.20;99.90
49549;DHT22;35450;44.518;7.466;2023-06-22T04:43:38;22.10;99.90
49549;DHT22;35450;44.518;7.466;2023-06-22T04:46:42;21.90;99.90
49549;DHT22;35450;44.518;7.466;2023-06-22T04:49:46;21.90;99.90
49549;DHT22;35450;44.518;7.466;2023-06-22T04:52:51;22.10;99.90
49549;DHT22;35450;44.518;7.466;2023-06-22T04:55:55;22.20;99.90
49549;DHT22;35450;44.518;7.466;2023-06-22T04:58:59;22.10;99.90
49549;DHT22;35450;44.518;7.466;2023-06-22T05:02:03;22.00;99.90
49549;DHT22;35450;44.518;7.466;2023-06-22T05:05:07;22.00;99.90
49549;DHT22;35450;44.518;7.466;2023-06-22T05:08:12;22.20;99.90
49549;DHT22;35450;44.518;7.466;2023-06-22T05:11:16;22.30;99.90
49549;DHT22;35450;44.518;7.466;2023-06-22T05:14:20;22.50;99.90
49549;DHT22;35450;44.518;7.466;2023-06-22T05:17:24;22.50;99.90
49549;DHT22;35450;44.518;7.466;2023-06-22T05:20:28;22.70;99.90
49549;DHT22;35450;44.518;7.466;2023-06-22T05:23:32;22.80;99.90
49549;DHT22;35450;44.518;7.466;2023-06-22T05:26:37;22.80;99.90
49549;DHT22;35450;44.518;7.466;2023-06-22T05:29:41;22.80;99.90
49549;DHT22;35450;44.518;7.466;2023-06-22T05:32:46;22.40;99.90
49549;DHT22;35450;44.518;7.466;2023-06-22T05:35:50;22.10;99.90
49549;DHT22;35450;44.518;7.466;2023-06-22T05:38:56;22.30;99.90
49549;DHT22;35450;44.518;7.466;2023-06-22T05:42:00;22.50;99.90
49549;DHT22;35450;44.518;7.466;2023-06-22T05:45:05;22.70;99.90
49549;DHT22;35450;44.518;7.466;2023-06-22T05:48:08;22.80;99.90
49549;DHT22;35450;44.518;7.466;2023-06-22T05:51:12;22.80;99.90
49549;DHT22;35450;44.518;7.466;2023-06-22T05:54:16;22.90;99.80
49549;DHT22;35450;44.518;7.466;2023-06-22T05:57:21;22.90;99.90
49549;DHT22;35450;44.518;7.466;2023-06-22T06:00:25;23.00;99.90
49549;DHT22;35450;44.518;7.466;2023-06-22T06:03:29;23.20;99.90
49549;DHT22;35450;44.518;7.466;2023-06-22T06:06:33;23.40;99.60
49549;DHT22;35450;44.518;7.466;2023-06-22T06:09:40;23.40;99.70
49549;DHT22;35450;44.518;7.466;2023-06-22T06:12:45;23.50;99.70
49549;DHT22;35450;44.518;7.466;2023-06-22T06:15:49;23.60;99.90
49549;DHT22;35450;44.518;7.466;2023-06-22T06:18:58;23.80;99.90
49549;DHT22;35450;44.518;7.466;2023-06-22T06:22:02;23.80;99.90
49549;DHT22;35450;44.518;7.466;2023-06-22T06:25:07;23.90;99.90
49549;DHT22;35450;44.518;7.466;2023-06-22T06:28:11;23.90;99.70
49549;DHT22;35450;44.518;7.466;2023-06-22T06:31:15;23.90;99.50
49549;DHT22;35450;44.518;7.466;2023-06-22T06:34:21;24.00;99.60
49549;DHT22;35450;44.518;7.466;2023-06-22T06:37:25;24.00;99.70
49549;DHT22;35450;44.518;7.466;2023-06-22T06:40:29;24.20;99.60
49549;DHT22;35450;44.518;7.466;2023-06-22T06:43:33;24.20;99.60
49549;DHT22;35450;44.518;7.466;2023-06-22T06:46:37;24.20;99.70
49549;DHT22;35450;44.518;7.466;2023-06-22T06:49:41;24.40;99.70
49549;DHT22;35450;44.518;7.466;2023-06-22T06:52:45;24.40;99.20
49549;DHT22;35450;44.518;7.466;2023-06-22T06:55:50;24.50;97.10
49549;DHT22;35450;44.518;7.466;2023-06-22T06:58:54;24.50;96.40
49549;DHT22;35450;44.518;7.466;2023-06-22T07:01:58;24.60;96.70
49549;DHT22;35450;44.518;7.466;2023-06-22T07:05:02;24.70;96.50
49549;DHT22;35450;44.518;7.466;2023-06-22T07:08:07;24.70;96.30
49549;DHT22;35450;44.518;7.466;2023-06-22T07:11:11;24.90;96.10
49549;DHT22;35450;44.518;7.466;2023-06-22T07:14:16;24.90;96.00
49549;DHT22;35450;44.518;7.466;2023-06-22T07:17:20;25.00;95.70
49549;DHT22;35450;44.518;7.466;2023-06-22T07:20:24;25.10;95.50
49549;DHT22;35450;44.518;7.466;2023-06-22T07:23:28;25.10;95.70
49549;DHT22;35450;44.518;7.466;2023-06-22T07:26:32;25.10;96.00
49549;DHT22;35450;44.518;7.466;2023-06-22T07:29:37;25.00;96.20
49549;DHT22;35450;44.518;7.466;2023-06-22T07:32:44;25.00;96.40
49549;DHT22;35450;44.518;7.466;2023-06-22T07:35:48;25.00;96.50
49549;DHT22;35450;44.518;7.466;2023-06-22T07:38:53;25.00;97.10
49549;DHT22;35450;44.518;7.466;2023-06-22T07:41:57;25.10;97.60
49549;DHT22;35450;44.518;7.466;2023-06-22T07:45:05;25.10;98.10
49549;DHT22;35450;44.518;7.466;2023-06-22T07:48:11;25.10;98.80
49549;DHT22;35450;44.518;7.466;2023-06-22T07:51:15;25.10;98.60
49549;DHT22;35450;44.518;7.466;2023-06-22T07:54:20;25.10;98.80
49549;DHT22;35450;44.518;7.466;2023-06-22T07:57:24;25.10;99.00
49549;DHT22;35450;44.518;7.466;2023-06-22T08:00:37;25.10;98.80
49549;DHT22;35450;44.518;7.466;2023-06-22T08:03:41;25.10;98.80
49549;DHT22;35450;44.518;7.466;2023-06-22T08:06:45;25.10;98.40
49549;DHT22;35450;44.518;7.466;2023-06-22T08:09:49;25.10;98.30
49549;DHT22;35450;44.518;7.466;2023-06-22T08:12:53;25.10;97.60
49549;DHT22;35450;44.518;7.466;2023-06-22T08:15:57;25.10;97.90
49549;DHT22;35450;44.518;7.466;2023-06-22T08:19:01;25.20;97.50
49549;DHT22;35450;44.518;7.466;2023-06-22T08:22:05;25.20;96.90
49549;DHT22;35450;44.518;7.466;2023-06-22T08:25:11;25.30;96.90
49549;DHT22;35450;44.518;7.466;2023-06-22T08:28:15;25.40;96.40
49549;DHT22;35450;44.518;7.466;2023-06-22T08:31:19;25.40;96.30
49549;DHT22;35450;44.518;7.466;2023-06-22T08:34:23;25.60;96.00
49549;DHT22;35450;44.518;7.466;2023-06-22T08:37:29;25.60;95.50
49549;DHT22;35450;44.518;7.466;2023-06-22T08:40:38;25.70;95.40
49549;DHT22;35450;44.518;7.466;2023-06-22T08:43:42;25.80;94.50
49549;DHT22;35450;44.518;7.466;2023-06-22T08:46:48;25.80;93.60
49549;DHT22;35450;44.518;7.466;2023-06-22T08:49:52;25.80;93.00
49549;DHT22;35450;44.518;7.466;2023-06-22T08:52:56;25.90;93.50
49549;DHT22;35450;44.518;7.466;2023-06-22T08:56:00;25.80;92.90
49549;DHT22;35450;44.518;7.466;2023-06-22T08:59:03;25.90;92.20
49549;DHT22;35450;44.518;7.466;2023-06-22T09:02:08;25.90;91.40
49549;DHT22;35450;44.518;7.466;2023-06-22T09:05:12;25.90;91.60
49549;DHT22;35450;44.518;7.466;2023-06-22T09:08:16;26.00;92.80
49549;DHT22;35450;44.518;7.466;2023-06-22T09:11:20;26.00;92.60
49549;DHT22;35450;44.518;7.466;2023-06-22T09:14:24;26.10;92.70
49549;DHT22;35450;44.518;7.466;2023-06-22T09:17:29;26.20;92.00
49549;DHT22;35450;44.518;7.466;2023-06-22T09:20:34;26.20;93.20
49549;DHT22;35450;44.518;7.466;2023-06-22T09:23:38;26.20;92.50
49549;DHT22;35450;44.518;7.466;2023-06-22T09:26:42;26.30;91.40
49549;DHT22;35450;44.518;7.466;2023-06-22T09:29:46;26.40;91.30
49549;DHT22;35450;44.518;7.466;2023-06-22T09:32:50;26.50;90.60
49549;DHT22;35450;44.518;7.466;2023-06-22T09:35:54;26.60;90.40
49549;DHT22;35450;44.518;7.466;2023-06-22T09:38:58;26.60;90.90
49549;DHT22;35450;44.518;7.466;2023-06-22T09:42:02;26.70;91.00
49549;DHT22;35450;44.518;7.466;2023-06-22T09:45:06;26.80;89.80
49549;DHT22;35450;44.518;7.466;2023-06-22T09:48:11;26.70;86.40
49549;DHT22;35450;44.518;7.466;2023-06-22T09:51:15;26.70;89.80
49549;DHT22;35450;44.518;7.466;2023-06-22T09:54:19;26.80;89.00
49549;DHT22;35450;44.518;7.466;2023-06-22T09:57:23;26.80;88.30
49549;DHT22;35450;44.518;7.466;2023-06-22T10:00:27;26.80;89.40
49549;DHT22;35450;44.518;7.466;2023-06-22T10:03:31;26.80;84.90
49549;DHT22;35450;44.518;7.466;2023-06-22T10:06:35;26.70;87.30
49549;DHT22;35450;44.518;7.466;2023-06-22T10:09:40;26.80;87.50
49549;DHT22;35450;44.518;7.466;2023-06-22T10:12:48;26.90;88.80
49549;DHT22;35450;44.518;7.466;2023-06-22T10:15:58;26.90;89.60
49549;DHT22;35450;44.518;7.466;2023-06-22T10:19:02;26.90;89.10
49549;DHT22;35450;44.518;7.466;2023-06-22T10:22:06;26.90;86.90
49549;DHT22;35450;44.518;7.466;2023-06-22T10:25:12;26.80;86.40
49549;DHT22;35450;44.518;7.466;2023-06-22T10:28:16;26.80;86.90
49549;DHT22;35450;44.518;7.466;2023-06-22T10:31:20;26.70;86.20
49549;DHT22;35450;44.518;7.466;2023-06-22T10:34:24;26.70;86.30
49549;DHT22;35450;44.518;7.466;2023-06-22T10:37:28;26.70;87.70
49549;DHT22;35450;44.518;7.466;2023-06-22T10:40:32;26.60;88.70
49549;DHT22;35450;44.518;7.466;2023-06-22T10:43:37;26.50;89.70
49549;DHT22;35450;44.518;7.466;2023-06-22T10:46:41;26.60;88.60
49549;DHT22;35450;44.518;7.466;2023-06-22T10:49:44;26.60;89.80
49549;DHT22;35450;44.518;7.466;2023-06-22T10:52:49;26.60;89.40
49549;DHT22;35450;44.518;7.466;2023-06-22T10:55:53;26.60;89.80
49549;DHT22;35450;44.518;7.466;2023-06-22T10:58:58;26.50;89.80
49549;DHT22;35450;44.518;7.466;2023-06-22T11:02:02;26.50;89.90
49549;DHT22;35450;44.518;7.466;2023-06-22T11:05:06;26.60;90.10
49549;DHT22;35450;44.518;7.466;2023-06-22T11:08:11;26.70;90.40
49549;DHT22;35450;44.518;7.466;2023-06-22T11:11:15;26.70;90.00
49549;DHT22;35450;44.518;7.466;2023-06-22T11:14:21;26.80;89.90
49549;DHT22;35450;44.518;7.466;2023-06-22T11:17:26;26.60;90.70
49549;DHT22;35450;44.518;7.466;2023-06-22T11:20:30;26.60;90.80
49549;DHT22;35450;44.518;7.466;2023-06-22T11:23:34;26.70;91.00
49549;DHT22;35450;44.518;7.466;2023-06-22T11:26:38;26.60;90.90
49549;DHT22;35450;44.518;7.466;2023-06-22T11:29:42;26.70;91.00
49549;DHT22;35450;44.518;7.466;2023-06-22T11:32:46;26.70;91.10
49549;DHT22;35450;44.518;7.466;2023-06-22T11:35:50;26.80;91.30
49549;DHT22;35450;44.518;7.466;2023-06-22T11:38:54;26.90;91.50
49549;DHT22;35450;44.518;7.466;2023-06-22T11:41:58;26.90;90.80
49549;DHT22;35450;44.518;7.466;2023-06-22T11:45:06;26.90;90.90
49549;DHT22;35450;44.518;7.466;2023-06-22T11:48:10;27.00;90.50
49549;DHT22;35450;44.518;7.466;2023-06-22T11:51:14;27.10;90.30
49549;DHT22;35450;44.518;7.466;2023-06-22T11:54:18;27.10;90.20
49549;DHT22;35450;44.518;7.466;2023-06-22T11:57:22;27.20;90.40
49549;DHT22;35450;44.518;7.466;2023-06-22T12:00:26;27.30;90.20
49549;DHT22;35450;44.518;7.466;2023-06-22T12:03:31;27.30;89.80
49549;DHT22;35450;44.518;7.466;2023-06-22T12:06:37;27.40;89.20
49549;DHT22;35450;44.518;7.466;2023-06-22T12:09:42;27.40;89.80
49549;DHT22;35450;44.518;7.466;2023-06-22T12:12:46;27.50;88.60
49549;DHT22;35450;44.518;7.466;2023-06-22T12:15:50;27.60;88.70
49549;DHT22;35450;44.518;7.466;2023-06-22T12:18:56;27.60;88.00
49549;DHT22;35450;44.518;7.466;2023-06-22T12:22:00;27.60;87.70
49549;DHT22;35450;44.518;7.466;2023-06-22T12:25:04;27.80;88.20
49549;DHT22;35450;44.518;7.466;2023-06-22T12:28:08;27.80;86.60
49549;DHT22;35450;44.518;7.466;2023-06-22T12:31:13;27.70;87.00
49549;DHT22;35450;44.518;7.466;2023-06-22T12:34:18;27.70;87.80
49549;DHT22;35450;44.518;7.466;2023-06-22T12:37:22;27.60;86.50
49549;DHT22;35450;44.518;7.466;2023-06-22T12:40:26;27.70;86.80
49549;DHT22;35450;44.518;7.466;2023-06-22T12:43:31;27.80;86.70
49549;DHT22;35450;44.518;7.466;2023-06-22T12:46:35;27.80;84.80
49549;DHT22;35450;44.518;7.466;2023-06-22T12:49:41;27.80;84.50
49549;DHT22;35450;44.518;7.466;2023-06-22T12:52:45;27.80;84.70
49549;DHT22;35450;44.518;7.466;2023-06-22T12:55:49;27.60;84.90
49549;DHT22;35450;44.518;7.466;2023-06-22T12:58:53;27.50;85.90
49549;DHT22;35450;44.518;7.466;2023-06-22T13:01:57;27.40;84.70
49549;DHT22;35450;44.518;7.466;2023-06-22T13:05:01;27.30;84.00
49549;DHT22;35450;44.518;7.466;2023-06-22T13:08:06;27.40;83.30
49549;DHT22;35450;44.518;7.466;2023-06-22T13:11:10;27.50;83.60
49549;DHT22;35450;44.518;7.466;2023-06-22T13:14:14;27.70;82.50
49549;DHT22;35450;44.518;7.466;2023-06-22T13:17:21;27.90;82.60
49549;DHT22;35450;44.518;7.466;2023-06-22T13:20:25;28.00;82.90
49549;DHT22;35450;44.518;7.466;2023-06-22T13:23:30;28.00;82.00
49549;DHT22;35450;44.518;7.466;2023-06-22T13:26:34;27.90;81.10
49549;DHT22;35450;44.518;7.466;2023-06-22T13:29:38;27.80;81.60
49549;DHT22;35450;44.518;7.466;2023-06-22T13:32:42;27.80;80.70
49549;DHT22;35450;44.518;7.466;2023-06-22T13:35:47;27.70;82.20
49549;DHT22;35450;44.518;7.466;2023-06-22T13:38:51;27.60;82.20
49549;DHT22;35450;44.518;7.466;2023-06-22T13:41:55;27.60;82.00
49549;DHT22;35450;44.518;7.466;2023-06-22T13:45:00;27.40;82.90
49549;DHT22;35450;44.518;7.466;2023-06-22T13:48:04;27.30;84.10
49549;DHT22;35450;44.518;7.466;2023-06-22T13:51:08;27.20;84.70
49549;DHT22;35450;44.518;7.466;2023-06-22T13:54:12;27.10;84.50
49549;DHT22;35450;44.518;7.466;2023-06-22T13:57:16;27.00;85.50
49549;DHT22;35450;44.518;7.466;2023-06-22T14:00:20;26.90;85.40
49549;DHT22;35450;44.518;7.466;2023-06-22T14:03:24;26.80;86.40
49549;DHT22;35450;44.518;7.466;2023-06-22T14:06:29;26.70;90.20
49549;DHT22;35450;44.518;7.466;2023-06-22T14:09:33;26.60;90.60
49549;DHT22;35450;44.518;7.466;2023-06-22T14:12:37;26.50;92.20
49549;DHT22;35450;44.518;7.466;2023-06-22T14:15:41;26.40;92.90
49549;DHT22;35450;44.518;7.466;2023-06-22T14:18:46;26.50;93.40
49549;DHT22;35450;44.518;7.466;2023-06-22T14:21:51;26.50;92.60
49549;DHT22;35450;44.518;7.466;2023-06-22T14:24:56;26.60;92.10
49549;DHT22;35450;44.518;7.466;2023-06-22T14:28:01;26.70;91.20
49549;DHT22;35450;44.518;7.466;2023-06-22T14:31:05;26.70;90.40
49549;DHT22;35450;44.518;7.466;2023-06-22T14:34:09;26.70;90.70
49549;DHT22;35450;44.518;7.466;2023-06-22T14:37:13;26.80;92.10
49549;DHT22;35450;44.518;7.466;2023-06-22T14:40:17;26.80;91.60
49549;DHT22;35450;44.518;7.466;2023-06-22T14:43:21;27.00;91.40
49549;DHT22;35450;44.518;7.466;2023-06-22T14:46:25;26.80;90.70
49549;DHT22;35450;44.518;7.466;2023-06-22T14:49:29;26.90;90.30
49549;DHT22;35450;44.518;7.466;2023-06-22T14:52:33;27.20;90.30
49549;DHT22;35450;44.518;7.466;2023-06-22T14:55:37;27.30;89.20
49549;DHT22;35450;44.518;7.466;2023-06-22T14:58:42;27.20;90.30
49549;DHT22;35450;44.518;7.466;2023-06-22T15:01:49;27.10;88.70
49549;DHT22;35450;44.518;7.466;2023-06-22T15:04:53;27.30;87.20
49549;DHT22;35450;44.518;7.466;2023-06-22T15:07:58;27.50;88.60
49549;DHT22;35450;44.518;7.466;2023-06-22T15:11:02;27.90;86.10
49549;DHT22;35450;44.518;7.466;2023-06-22T15:14:06;28.90;85.10
49549;DHT22;35450;44.518;7.466;2023-06-22T15:17:10;30.20;82.80
49549;DHT22;35450;44.518;7.466;2023-06-22T15:20:17;30.70;79.60
49549;DHT22;35450;44.518;7.466;2023-06-22T15:23:21;31.20;78.10
49549;DHT22;35450;44.518;7.466;2023-06-22T15:26:25;32.10;76.60
49549;DHT22;35450;44.518;7.466;2023-06-22T15:29:30;32.90;75.40
49549;DHT22;35450;44.518;7.466;2023-06-22T15:32:37;33.20;73.70
49549;DHT22;35450;44.518;7.466;2023-06-22T15:35:41;33.10;73.40
49549;DHT22;35450;44.518;7.466;2023-06-22T15:38:45;32.90;73.50
49549;DHT22;35450;44.518;7.466;2023-06-22T15:41:50;32.30;74.00
49549;DHT22;35450;44.518;7.466;2023-06-22T15:44:57;31.90;75.10
49549;DHT22;35450;44.518;7.466;2023-06-22T15:48:01;30.90;75.80
49549;DHT22;35450;44.518;7.466;2023-06-22T15:51:05;30.20;77.70
49549;DHT22;35450;44.518;7.466;2023-06-22T15:54:10;30.00;79.80
49549;DHT22;35450;44.518;7.466;2023-06-22T15:57:15;30.00;80.70
49549;DHT22;35450;44.518;7.466;2023-06-22T16:00:20;30.10;81.80
49549;DHT22;35450;44.518;7.466;2023-06-22T16:03:25;29.90;84.00
49549;DHT22;35450;44.518;7.466;2023-06-22T16:06:29;29.90;83.70
49549;DHT22;35450;44.518;7.466;2023-06-22T16:09:33;29.70;82.50
49549;DHT22;35450;44.518;7.466;2023-06-22T16:12:41;29.40;83.80
49549;DHT22;35450;44.518;7.466;2023-06-22T16:15:47;29.10;84.70
49549;DHT22;35450;44.518;7.466;2023-06-22T16:18:51;28.90;84.70
49549;DHT22;35450;44.518;7.466;2023-06-22T16:21:55;28.70;85.40
49549;DHT22;35450;44.518;7.466;2023-06-22T16:24:59;28.60;84.50
49549;DHT22;35450;44.518;7.466;2023-06-22T16:28:03;28.60;85.30
49549;DHT22;35450;44.518;7.466;2023-06-22T16:31:07;28.60;86.10
49549;DHT22;35450;44.518;7.466;2023-06-22T16:34:11;28.60;87.00
49549;DHT22;35450;44.518;7.466;2023-06-22T16:37:15;28.40;87.70
49549;DHT22;35450;44.518;7.466;2023-06-22T16:40:19;28.10;87.70
49549;DHT22;35450;44.518;7.466;2023-06-22T16:43:24;28.10;88.50
49549;DHT22;35450;44.518;7.466;2023-06-22T16:46:28;28.20;88.30
49549;DHT22;35450;44.518;7.466;2023-06-22T16:49:32;28.10;86.80
49549;DHT22;35450;44.518;7.466;2023-06-22T16:52:36;28.00;86.20
49549;DHT22;35450;44.518;7.466;2023-06-22T16:55:41;27.50;86.30
49549;DHT22;35450;44.518;7.466;2023-06-22T16:58:46;27.50;87.20
49549;DHT22;35450;44.518;7.466;2023-06-22T17:01:53;27.50;86.00
49549;DHT22;35450;44.518;7.466;2023-06-22T17:04:57;27.50;88.30
49549;DHT22;35450;44.518;7.466;2023-06-22T17:08:02;27.60;87.90
49549;DHT22;35450;44.518;7.466;2023-06-22T17:11:08;27.70;86.50
49549;DHT22;35450;44.518;7.466;2023-06-22T17:14:12;27.70;86.90
49549;DHT22;35450;44.518;7.466;2023-06-22T17:17:17;27.90;86.20
49549;DHT22;35450;44.518;7.466;2023-06-22T17:20:21;27.90;86.40
49549;DHT22;35450;44.518;7.466;2023-06-22T17:23:27;28.00;86.30
49549;DHT22;35450;44.518;7.466;2023-06-22T17:26:32;28.00;85.60
49549;DHT22;35450;44.518;7.466;2023-06-22T17:29:36;27.90;85.30
49549;DHT22;35450;44.518;7.466;2023-06-22T17:32:40;27.80;86.00
49549;DHT22;35450;44.518;7.466;2023-06-22T17:35:48;27.70;86.40
49549;DHT22;35450;44.518;7.466;2023-06-22T17:38:58;27.70;86.10
49549;DHT22;35450;44.518;7.466;2023-06-22T17:42:06;27.80;85.50
49549;DHT22;35450;44.518;7.466;2023-06-22T17:45:21;27.80;85.40
49549;DHT22;35450;44.518;7.466;2023-06-22T17:48:26;27.60;85.40
49549;DHT22;35450;44.518;7.466;2023-06-22T17:51:34;27.60;86.30
49549;DHT22;35450;44.518;7.466;2023-06-22T17:54:38;27.70;86.40
49549;DHT22;35450;44.518;7.466;2023-06-22T17:57:42;27.50;89.30
49549;DHT22;35450;44.518;7.466;2023-06-22T18:00:49;27.20;87.00
49549;DHT22;35450;44.518;7.466;2023-06-22T18:03:54;27.00;86.70
49549;DHT22;35450;44.518;7.466;2023-06-22T18:06:58;26.90;87.60
49549;DHT22;35450;44.518;7.466;2023-06-22T18:10:07;26.80;87.30
49549;DHT22;35450;44.518;7.466;2023-06-22T18:13:11;26.70;87.40
49549;DHT22;35450;44.518;7.466;2023-06-22T18:16:18;26.90;87.10
49549;DHT22;35450;44.518;7.466;2023-06-22T18:19:23;27.00;85.90
49549;DHT22;35450;44.518;7.466;2023-06-22T18:22:28;27.00;84.90
49549;DHT22;35450;44.518;7.466;2023-06-22T18:25:34;27.10;84.00
49549;DHT22;35450;44.518;7.466;2023-06-22T18:28:38;27.00;84.70
49549;DHT22;35450;44.518;7.466;2023-06-22T18:31:43;26.90;85.10
49549;DHT22;35450;44.518;7.466;2023-06-22T18:34:47;26.60;88.00
49549;DHT22;35450;44.518;7.466;2023-06-22T18:37:51;26.20;90.00
49549;DHT22;35450;44.518;7.466;2023-06-22T18:40:56;26.10;90.50
49549;DHT22;35450;44.518;7.466;2023-06-22T18:44:00;25.90;90.80
49549;DHT22;35450;44.518;7.466;2023-06-22T18:47:05;25.60;90.30
49549;DHT22;35450;44.518;7.466;2023-06-22T18:50:09;25.30;90.50
49549;DHT22;35450;44.518;7.466;2023-06-22T18:53:16;25.40;91.00
49549;DHT22;35450;44.518;7.466;2023-06-22T18:56:21;25.40;90.00
49549;DHT22;35450;44.518;7.466;2023-06-22T19:05:55;25.10;88.50
49549;DHT22;35450;44.518;7.466;2023-06-22T19:09:15;25.10;88.10
49549;DHT22;35450;44.518;7.466;2023-06-22T19:12:23;25.30;88.20
49549;DHT22;35450;44.518;7.466;2023-06-22T19:15:32;25.10;87.90
49549;DHT22;35450;44.518;7.466;2023-06-22T19:18:40;25.00;88.20
49549;DHT22;35450;44.518;7.466;2023-06-22T19:21:58;25.00;88.90
49549;DHT22;35450;44.518;7.466;2023-06-22T19:25:03;24.90;88.90
49549;DHT22;35450;44.518;7.466;2023-06-22T19:28:11;24.70;89.70
49549;DHT22;35450;44.518;7.466;2023-06-22T19:31:17;24.70;89.60
49549;DHT22;35450;44.518;7.466;2023-06-22T19:34:22;24.70;89.70
49549;DHT22;35450;44.518;7.466;2023-06-22T19:37:27;24.80;89.70